Time;durP1;ratioP1;P1;durP2;ratioP2;P2;SDS_P1;SDS_P2;PMS_P1;PMS_P2;Temp;Humidity;BMP_temperature;BMP_pressure;BME280_temperature;BME280_humidity;BME280_pressure;Samples;Min_cycle;Max_cycle;Signal;HPM_P1;HPM_P2
2022/09/13 00:02:23;;;;;;;2.40;2.20;;;;;;;-143.84;74.47;45092.88;5109756;28;20438;-73
2022/09/13 00:04:50;;;;;;;3.80;2.50;;;;;;;-143.84;74.60;45077.63;5110058;28;20441;-73
2022/09/13 00:07:18;;;;;;;28.77;2.70;;;;;;;-143.84;74.98;45089.06;5109869;28;20441;-73
2022/09/13 00:09:45;;;;;;;5.03;2.20;;;;;;;-143.84;75.04;45077.63;5109129;28;20442;-73
2022/09/13 00:12:12;;;;;;;4.63;2.67;;;;;;;-143.84;75.23;45075.72;5109409;28;20511;-73
2022/09/13 00:14:41;;;;;;;5.63;2.40;;;;;;;-143.84;75.38;45092.88;5110135;28;20471;-73
2022/09/13 00:17:08;;;;;;;2.53;2.27;;;;;;;-143.84;75.54;45075.72;5110160;28;20492;-73
2022/09/13 00:19:36;;;;;;;3.20;2.17;;;;;;;-143.84;75.27;45081.44;5110183;28;20495;-73
2022/09/13 00:22:05;;;;;;;2.70;2.50;;;;;;;-143.84;74.33;45087.16;5110134;28;20456;-73
2022/09/13 00:24:32;;;;;;;3.00;1.77;;;;;;;-143.84;73.39;45100.47;5110191;28;20468;-73
2022/09/13 00:27:00;;;;;;;1.90;1.80;;;;;;;-143.84;72.19;45100.47;5110146;28;20449;-73
2022/09/13 00:29:27;;;;;;;2.73;2.50;;;;;;;-143.84;72.02;45089.06;5109795;28;20440;-73
2022/09/13 00:31:56;;;;;;;7.23;2.40;;;;;;;-143.84;70.75;45079.53;5110138;28;20441;-73
2022/09/13 00:34:24;;;;;;;2.33;1.50;;;;;;;-143.84;69.26;45071.91;5109819;28;20482;-73
2022/09/13 00:36:51;;;;;;;2.10;1.50;;;;;;;-143.84;68.24;45073.81;5112250;28;20444;-73
2022/09/13 00:39:18;;;;;;;1.30;1.20;;;;;;;-143.84;68.28;45089.06;5113919;28;20487;-73
2022/09/13 00:41:45;;;;;;;1.87;1.77;;;;;;;-143.84;67.85;45075.72;5114134;28;20441;-73
2022/09/13 00:44:49;;;;;;;1.10;1.00;;;;;;;-143.84;67.34;45070.00;5114153;28;20860;-73
2022/09/13 00:47:21;;;;;;;1.53;1.43;;;;;;;-143.84;67.58;45083.34;5113828;28;20527;-73
2022/09/13 00:49:52;;;;;;;2.00;1.37;;;;;;;-143.84;67.30;45083.34;5111908;28;21397;-73
2022/09/13 00:52:23;;;;;;;3.07;1.43;;;;;;;-143.84;67.00;45083.34;5093403;28;20967;-73
2022/09/13 00:54:56;;;;;;;2.50;1.70;;;;;;;-143.84;66.94;45085.25;5093029;28;20478;-73
2022/09/13 00:57:25;;;;;;;2.13;1.37;;;;;;;-143.84;66.60;45132.84;5092724;28;20452;-73
2022/09/13 00:59:59;;;;;;;1.50;1.40;;;;;;;-143.84;66.23;45121.44;5092198;28;20443;-73
2022/09/13 01:02:28;;;;;;;2.50;1.23;;;;;;;-143.84;66.19;45087.16;5090986;28;21131;-73
2022/09/13 01:04:56;;;;;;;3.23;1.40;;;;;;;-143.84;65.45;45090.97;5090717;28;20526;-73
2022/09/13 01:07:24;;;;;;;1.43;1.33;;;;;;;-143.84;64.68;45104.28;5091277;28;20445;-73
2022/09/13 01:09:53;;;;;;;2.23;1.10;;;;;;;-143.84;64.45;45085.25;5091292;28;21277;-73
2022/09/13 01:12:30;;;;;;;3.93;1.40;;;;;;;-143.84;64.40;45119.53;5091053;28;20449;-73
2022/09/13 01:14:59;;;;;;;1.63;1.40;;;;;;;-143.84;64.62;45092.88;5091040;28;20589;-73
2022/09/13 01:17:29;;;;;;;2.60;1.30;;;;;;;-143.84;64.60;45106.19;5091775;28;20527;-73
2022/09/13 01:19:57;;;;;;;2.93;1.17;;;;;;;-143.84;64.93;45094.78;5092423;28;20468;-73
2022/09/13 01:23:11;;;;;;;1.60;1.50;;;;;;;-143.84;64.31;45110.00;5092481;28;21253;-73
2022/09/13 01:26:03;;;;;;;2.07;1.20;;;;;;;-143.84;64.45;45090.97;5073013;28;20521;-73
2022/09/13 01:28:58;;;;;;;1.10;1.00;;;;;;;-143.84;64.27;45098.56;5075533;28;20445;-73
2022/09/13 01:31:35;;;;;;;1.10;0.93;;;;;;;-143.84;64.20;45071.91;5086119;28;20460;-73
2022/09/13 01:34:16;;;;;;;1.40;1.30;;;;;;;-143.84;64.17;45087.16;5091664;28;20909;-73
2022/09/13 01:36:54;;;;;;;3.37;1.63;;;;;;;-143.84;63.88;45087.16;5092228;28;20441;-73
2022/09/13 01:39:38;;;;;;;2.07;1.40;;;;;;;-143.84;63.77;45098.56;5091956;28;20561;-73
2022/09/13 01:42:16;;;;;;;4.33;1.00;;;;;;;-143.84;63.69;45073.81;5091300;28;21008;-73
2022/09/13 01:45:07;;;;;;;8.00;1.07;;;;;;;-143.84;63.45;45096.66;5091746;28;20525;-73
2022/09/13 01:47:46;;;;;;;8.07;1.50;;;;;;;-143.84;63.42;45106.19;5090703;28;20436;-73
2022/09/13 01:50:19;;;;;;;1.23;1.13;;;;;;;-143.84;63.36;45096.66;5092115;28;20522;-73
2022/09/13 01:52:54;;;;;;;2.53;1.37;;;;;;;-143.84;63.32;45108.09;5092195;28;20831;-73
2022/09/13 01:55:29;;;;;;;2.23;1.23;;;;;;;-143.84;63.23;45090.97;5092138;28;20487;-73
2022/09/13 01:58:07;;;;;;;3.47;1.00;;;;;;;-143.84;62.86;45090.97;5091817;28;20816;-73
2022/09/13 02:00:41;;;;;;;1.10;1.00;;;;;;;-143.84;62.94;45083.34;5091906;28;20432;-73
2022/09/13 02:03:14;;;;;;;1.20;1.10;;;;;;;-143.84;62.84;45090.97;5091818;28;20951;-73
2022/09/13 02:05:47;;;;;;;1.80;1.30;;;;;;;-143.84;62.57;45115.72;5091695;28;20452;-73
2022/09/13 02:08:19;;;;;;;1.10;0.80;;;;;;;-143.84;62.49;45096.66;5091521;28;20494;-73
2022/09/13 02:10:51;;;;;;;1.30;1.20;;;;;;;-143.84;62.16;45083.34;5091759;28;20983;-73
2022/09/13 02:13:24;;;;;;;1.50;1.37;;;;;;;-143.84;62.34;45092.88;5091415;28;20445;-73
2022/09/13 02:15:56;;;;;;;1.30;1.10;;;;;;;-143.84;62.69;45104.28;5098659;28;20519;-73
2022/09/13 02:18:30;;;;;;;3.30;1.33;;;;;;;-143.84;62.84;45106.19;5091335;28;20440;-73
2022/09/13 02:21:01;;;;;;;1.57;1.30;;;;;;;-143.84;62.96;45090.97;5091371;28;20440;-73
2022/09/13 02:23:36;;;;;;;1.33;1.23;;;;;;;-143.84;63.07;45102.38;5091473;28;20436;-73
2022/09/13 02:26:07;;;;;;;1.77;1.10;;;;;;;-143.84;63.11;45096.66;5091349;28;20493;-73
2022/09/13 02:28:38;;;;;;;4.03;1.30;;;;;;;-143.84;63.32;45092.88;5091153;28;20443;-73
2022/09/13 02:31:09;;;;;;;1.67;1.10;;;;;;;-143.84;63.62;45100.47;5090625;28;20498;-73
2022/09/13 02:33:43;;;;;;;1.43;1.13;;;;;;;-143.84;63.88;45087.16;5090208;28;20452;-73
2022/09/13 02:36:15;;;;;;;1.40;1.10;;;;;;;-143.84;64.00;45117.63;5090317;28;20431;-73
2022/09/13 02:38:47;;;;;;;7.03;1.23;;;;;;;-143.84;64.22;45110.00;5090152;28;20483;-73
2022/09/13 02:41:24;;;;;;;1.30;1.03;;;;;;;-143.84;64.37;45087.16;5090090;28;20489;-73
2022/09/13 02:43:57;;;;;;;1.60;1.33;;;;;;;-143.84;64.72;45098.56;5089946;28;20451;-73
2022/09/13 02:46:37;;;;;;;1.30;1.20;;;;;;;-143.84;65.03;45106.19;5090188;28;20485;-73
2022/09/13 02:49:15;;;;;;;1.23;1.13;;;;;;;-143.84;65.12;45085.25;5089936;28;20787;-73
2022/09/13 02:51:50;;;;;;;1.57;1.20;;;;;;;-143.84;65.40;45087.16;5090009;28;20515;-73
2022/09/13 02:54:25;;;;;;;1.33;1.23;;;;;;;-143.84;65.55;45052.88;5089121;28;20477;-73
2022/09/13 02:56:59;;;;;;;1.50;1.03;;;;;;;-143.84;65.42;45117.63;5089828;28;20501;-73
2022/09/13 02:59:27;;;;;;;1.50;1.20;;;;;;;-143.84;65.60;45096.66;5089515;28;20443;-73
2022/09/13 03:02:00;;;;;;;2.13;1.10;;;;;;;-143.84;65.56;45098.56;5089131;28;20493;-73
2022/09/13 03:04:29;;;;;;;1.60;1.17;;;;;;;-143.84;65.44;45089.06;5089261;28;20569;-73
2022/09/13 03:06:56;;;;;;;1.40;1.30;;;;;;;-143.84;65.41;45134.75;5089256;28;20947;-73
2022/09/13 03:09:25;;;;;;;1.10;1.00;;;;;;;-143.84;65.23;45113.81;5090042;28;20444;-73
2022/09/13 03:12:17;;;;;;;1.50;1.33;;;;;;;-143.84;65.33;45121.44;5090892;28;20452;-70
2022/09/13 03:14:55;;;;;;;1.10;1.00;;;;;;;-143.84;65.02;45119.53;5090903;28;20838;-74
2022/09/13 03:17:35;;;;;;;3.70;1.10;;;;;;;-143.84;64.71;45098.56;5090387;28;20451;-73
2022/09/13 03:20:09;;;;;;;1.20;1.00;;;;;;;-143.84;64.60;45115.72;5089906;28;20521;-73
2022/09/13 03:23:00;;;;;;;1.23;1.10;;;;;;;-143.84;64.28;45115.72;5088545;28;20451;-73
2022/09/13 03:25:37;;;;;;;1.40;1.20;;;;;;;-143.84;63.77;45081.44;5071896;28;20481;-73
2022/09/13 03:28:14;;;;;;;1.30;1.00;;;;;;;-143.84;63.69;45102.38;5089105;28;20439;-72
2022/09/13 03:30:48;;;;;;;1.20;1.10;;;;;;;-143.84;63.06;45098.56;5089082;28;20435;-73
2022/09/13 03:33:26;;;;;;;1.20;1.10;;;;;;;-143.84;62.81;45087.16;5089347;28;20449;-73
2022/09/13 03:35:58;;;;;;;1.30;1.20;;;;;;;-143.84;62.92;45129.03;5089095;28;20849;-73
2022/09/13 03:38:31;;;;;;;1.63;1.20;;;;;;;-143.84;63.21;45130.94;5089236;28;20519;-70
2022/09/13 03:41:05;;;;;;;1.10;1.00;;;;;;;-143.84;63.42;45090.97;5089320;28;20498;-70
2022/09/13 03:43:37;;;;;;;4.90;1.20;;;;;;;-143.84;63.67;45117.63;5089030;28;20514;-70
2022/09/13 03:46:07;;;;;;;1.33;1.23;;;;;;;-143.84;64.17;45115.72;5089661;28;20460;-71
2022/09/13 03:48:37;;;;;;;1.87;1.20;;;;;;;-143.84;64.04;45117.63;5089982;28;20805;-73
2022/09/13 03:51:07;;;;;;;2.03;1.30;;;;;;;-143.84;64.17;45108.09;5090573;28;20471;-72
2022/09/13 03:53:39;;;;;;;1.43;1.33;;;;;;;-143.84;64.73;45125.22;5089645;28;20439;-75
2022/09/13 03:56:13;;;;;;;1.50;1.10;;;;;;;-143.84;64.54;45113.81;5096866;28;20524;-74
2022/09/13 03:58:40;;;;;;;1.17;1.07;;;;;;;-143.84;64.66;45111.91;5109515;28;20434;-71
2022/09/13 04:01:09;;;;;;;6.23;1.73;;;;;;;-143.84;64.74;45115.72;5109823;28;20449;-71
2022/09/13 04:03:36;;;;;;;1.57;1.40;;;;;;;-143.84;64.79;45132.84;5109470;28;20431;-71
2022/09/13 04:06:03;;;;;;;2.73;1.20;;;;;;;-143.84;65.15;45098.56;5109450;28;20450;-72
2022/09/13 04:08:32;;;;;;;1.37;1.27;;;;;;;-143.84;65.34;45111.91;5109611;28;20447;-72
2022/09/13 04:11:00;;;;;;;5.90;1.60;;;;;;;-143.84;65.45;45115.72;5111158;28;20442;-73
2022/09/13 04:13:28;;;;;;;2.07;1.50;;;;;;;-143.84;65.88;45106.19;5114095;28;20447;-73
2022/09/13 04:15:55;;;;;;;1.40;1.30;;;;;;;-143.84;66.11;45102.38;5113690;28;20561;-73
2022/09/13 04:18:23;;;;;;;3.63;1.30;;;;;;;-143.84;66.66;45100.47;5113794;28;20445;-73
2022/09/13 04:20:57;;;;;;;1.50;1.17;;;;;;;-143.84;67.13;45125.22;5113941;28;21306;-73
2022/09/13 04:23:26;;;;;;;3.13;1.40;;;;;;;-143.84;67.47;45113.81;5114694;28;20437;-73
2022/09/13 04:25:55;;;;;;;1.37;1.27;;;;;;;-143.84;67.81;45098.56;5113729;28;20431;-73
2022/09/13 04:28:23;;;;;;;1.70;1.40;;;;;;;-143.84;67.75;45110.00;5114027;28;20462;-73
2022/09/13 04:30:50;;;;;;;6.10;1.13;;;;;;;-143.84;67.55;45087.16;5113598;28;20445;-73
2022/09/13 04:33:17;;;;;;;2.00;0.90;;;;;;;-143.84;67.32;45127.13;5113545;28;20424;-73
2022/09/13 04:35:44;;;;;;;1.20;1.10;;;;;;;-143.84;66.19;45094.78;5113799;28;20481;-73
2022/09/13 04:38:12;;;;;;;1.27;1.17;;;;;;;-143.84;65.20;45110.00;5113347;28;20782;-73
2022/09/13 04:40:39;;;;;;;1.50;1.13;;;;;;;-143.84;64.62;45102.38;5113790;28;20443;-73
2022/09/13 04:43:08;;;;;;;1.23;1.13;;;;;;;-143.84;63.17;45098.56;5113574;28;20448;-73
2022/09/13 04:45:35;;;;;;;2.90;1.13;;;;;;;-143.84;62.97;45083.34;5113526;28;20446;-73
2022/09/13 04:48:03;;;;;;;3.63;1.40;;;;;;;-143.84;61.93;45110.00;5113212;28;20794;-73
2022/09/13 04:50:31;;;;;;;1.10;1.00;;;;;;;-143.84;59.49;45090.97;5113042;28;20448;-73
2022/09/13 04:52:58;;;;;;;1.30;1.20;;;;;;;-143.84;58.39;45085.25;5113545;28;20425;-73
2022/09/13 04:55:25;;;;;;;6.30;1.27;;;;;;;-143.84;56.30;45092.88;5113321;28;20568;-73
2022/09/13 04:57:55;;;;;;;2.63;1.23;;;;;;;-143.84;54.40;45071.91;5113299;28;20549;-73
2022/09/13 05:00:25;;;;;;;1.40;1.13;;;;;;;-143.84;52.55;45071.91;5113271;28;21098;-73
2022/09/13 05:02:56;;;;;;;1.00;0.83;;;;;;;-143.84;50.56;45094.78;5112835;28;20449;-73
2022/09/13 05:05:24;;;;;;;3.57;1.07;;;;;;;-143.84;49.46;45087.16;5113145;28;20568;-73
2022/09/13 05:07:51;;;;;;;2.93;1.20;;;;;;;-143.84;48.09;45064.31;5113364;28;20430;-73
2022/09/13 05:10:19;;;;;;;1.37;1.20;;;;;;;-143.84;47.01;45083.34;5113328;28;20495;-73
2022/09/13 05:12:47;;;;;;;3.67;1.10;;;;;;;-143.84;45.61;45070.00;5113236;28;20435;-73
2022/09/13 05:15:14;;;;;;;1.20;1.10;;;;;;;-143.84;45.09;45045.25;5112890;28;20481;-73
2022/09/13 05:17:43;;;;;;;2.30;1.00;;;;;;;-143.84;43.89;45045.25;5112448;28;20443;-73
2022/09/13 05:20:11;;;;;;;2.10;0.90;;;;;;;-143.84;43.18;45043.34;5112976;28;20489;-73
2022/09/13 05:22:38;;;;;;;1.73;1.30;;;;;;;-143.84;42.51;45037.66;5112992;28;20515;-73
2022/09/13 05:25:07;;;;;;;3.13;1.43;;;;;;;-143.84;42.01;45030.03;5113067;28;20434;-73
2022/09/13 05:27:34;;;;;;;1.00;0.90;;;;;;;-143.84;41.79;45068.13;5112793;28;20423;-73
2022/09/13 05:30:01;;;;;;;2.23;1.30;;;;;;;-143.84;41.27;45049.06;5113058;28;20439;-73
2022/09/13 05:32:30;;;;;;;4.23;1.40;;;;;;;-143.84;40.49;45028.13;5112395;28;20807;-73
2022/09/13 05:34:59;;;;;;;1.63;0.90;;;;;;;-143.84;40.23;45030.03;5111976;28;20482;-73
2022/09/13 05:37:26;;;;;;;1.23;0.83;;;;;;;-143.84;39.97;45031.94;5111735;28;20434;-73
2022/09/13 05:39:53;;;;;;;1.83;1.10;;;;;;;-143.84;39.23;45026.22;5111772;28;20481;-73
2022/09/13 05:42:21;;;;;;;1.63;0.97;;;;;;;-143.84;39.41;45024.31;5112704;28;20442;-73
2022/09/13 05:44:48;;;;;;;1.40;0.90;;;;;;;-143.84;38.69;45009.09;5113020;28;20435;-73
2022/09/13 05:47:15;;;;;;;1.73;0.80;;;;;;;-143.84;38.41;45041.44;5111932;28;20431;-73
2022/09/13 05:49:43;;;;;;;0.90;0.80;;;;;;;-143.84;38.12;45012.88;5111285;28;20442;-73
2022/09/13 05:52:11;;;;;;;1.23;1.10;;;;;;;-143.84;38.03;44988.13;5111450;28;20963;-73
2022/09/13 05:54:38;;;;;;;3.73;1.00;;;;;;;-143.84;37.62;45024.31;5110176;28;20446;-73
2022/09/13 05:57:06;;;;;;;1.83;0.90;;;;;;;-143.84;37.55;45030.03;5109235;28;20500;-73
2022/09/13 05:59:33;;;;;;;6.10;1.47;;;;;;;-143.84;37.37;45010.97;5111525;28;20447;-73
2022/09/13 06:02:00;;;;;;;2.40;0.80;;;;;;;-143.84;37.56;45012.88;5111352;28;20454;-73
2022/09/13 06:04:27;;;;;;;2.20;1.00;;;;;;;-143.84;36.76;44999.56;5111636;28;20492;-73
2022/09/13 06:06:54;;;;;;;1.23;1.13;;;;;;;-143.84;36.66;45005.28;5109889;28;20516;-73
2022/09/13 06:09:23;;;;;;;2.40;0.80;;;;;;;-143.84;36.73;44990.03;5111058;28;20455;-73
2022/09/13 06:11:50;;;;;;;1.17;1.00;;;;;;;-143.84;36.23;45005.28;5111275;28;20680;-73
2022/09/13 06:14:18;;;;;;;1.23;1.07;;;;;;;-143.84;35.96;44984.31;5111020;28;20971;-73
2022/09/13 06:16:45;;;;;;;1.30;1.20;;;;;;;-143.84;35.67;44976.72;5110530;28;20471;-73
2022/09/13 06:19:12;;;;;;;1.20;0.97;;;;;;;-143.84;35.67;45005.28;5111114;28;20956;-73
2022/09/13 06:21:40;;;;;;;1.10;0.97;;;;;;;-143.84;35.04;45016.69;5111010;28;20474;-73
2022/09/13 06:24:08;;;;;;;2.40;1.17;;;;;;;-143.84;35.52;44995.75;5111101;28;20447;-73
2022/09/13 06:26:37;;;;;;;2.40;1.00;;;;;;;-143.84;34.97;44978.63;5093068;28;20455;-73
2022/09/13 06:29:04;;;;;;;1.53;1.20;;;;;;;-143.84;35.28;45001.47;5110606;28;20454;-73
2022/09/13 06:31:31;;;;;;;1.70;0.90;;;;;;;-143.84;34.47;44997.66;5110166;28;21047;-73
2022/09/13 06:34:01;;;;;;;1.50;1.03;;;;;;;-143.84;34.24;44984.31;5110393;28;20495;-73
2022/09/13 06:36:28;;;;;;;1.63;0.77;;;;;;;-143.84;34.47;45001.47;5109101;28;21012;-73
2022/09/13 06:38:55;;;;;;;1.13;0.90;;;;;;;-143.84;33.90;44990.03;5108059;28;20486;-73
2022/09/13 06:41:26;;;;;;;1.70;0.83;;;;;;;-143.84;34.77;45010.97;5110628;28;20570;-73
2022/09/13 06:43:56;;;;;;;1.30;0.90;;;;;;;-143.84;33.09;44967.19;5110517;28;20442;-73
2022/09/13 06:46:23;;;;;;;2.07;1.10;;;;;;;-143.84;33.34;44988.13;5109959;28;20922;-73
2022/09/13 06:48:51;;;;;;;1.23;1.13;;;;;;;-143.84;32.95;44986.22;5110239;28;20467;-73
2022/09/13 06:51:20;;;;;;;2.00;1.10;;;;;;;-143.84;33.61;44984.31;5109849;28;20540;-73
2022/09/13 06:53:50;;;;;;;3.33;1.00;;;;;;;-143.84;32.40;44980.53;5109321;28;20442;-73
2022/09/13 06:56:19;;;;;;;4.77;1.17;;;;;;;-143.84;31.97;44980.53;5110042;28;20527;-73
2022/09/13 06:58:49;;;;;;;1.93;1.50;;;;;;;-143.84;31.03;44976.72;5111219;28;20447;-73
2022/09/13 07:01:19;;;;;;;4.03;1.27;;;;;;;-143.84;30.40;44953.88;5110429;28;20466;-73
2022/09/13 07:03:48;;;;;;;1.43;1.33;;;;;;;-143.84;30.91;44963.38;5109861;28;20443;-73
2022/09/13 07:06:18;;;;;;;1.30;1.20;;;;;;;-143.84;30.98;44978.63;5109565;28;20447;-73
2022/09/13 07:08:45;;;;;;;3.67;1.40;;;;;;;-143.84;31.44;44946.25;5109404;28;20981;-73
2022/09/13 07:11:14;;;;;;;1.50;1.40;;;;;;;-143.84;31.33;44974.81;5109419;28;20451;-73
2022/09/13 07:13:42;;;;;;;4.63;1.60;;;;;;;-143.84;31.71;44972.91;5109076;28;20450;-73
2022/09/13 07:16:11;;;;;;;2.73;1.73;;;;;;;-143.84;30.12;44976.72;5108377;28;20894;-74
2022/09/13 07:18:40;;;;;;;5.17;1.37;;;;;;;-143.84;30.80;44965.28;5109118;28;20450;-73
2022/09/13 07:21:08;;;;;;;1.50;1.30;;;;;;;-143.84;31.44;44972.91;5109106;28;20451;-74
2022/09/13 07:23:37;;;;;;;7.20;1.17;;;;;;;-143.84;30.31;44963.38;5108887;28;20457;-74
2022/09/13 07:26:06;;;;;;;1.80;1.70;;;;;;;-143.84;30.76;44953.88;5109101;28;21035;-73
2022/09/13 07:28:35;;;;;;;4.13;1.40;;;;;;;-143.84;30.26;44946.25;5108966;28;20469;-73
2022/09/13 07:31:11;;;;;;;1.70;1.43;;;;;;;-143.84;30.63;44950.06;5108177;28;20451;-73
2022/09/13 07:33:41;;;;;;;1.50;1.40;;;;;;;-143.84;31.50;44946.25;5106312;28;20458;-73
2022/09/13 07:36:10;;;;;;;1.80;1.50;;;;;;;-143.84;30.95;44961.47;5103130;28;20510;-73
2022/09/13 07:38:39;;;;;;;5.10;1.30;;;;;;;-143.84;30.64;44932.91;5108362;28;20596;-73
2022/09/13 07:41:07;;;;;;;1.47;1.37;;;;;;;-143.84;31.06;44971.00;5108957;28;20454;-73
2022/09/13 07:43:36;;;;;;;1.27;1.17;;;;;;;-143.84;31.20;44972.91;5105535;28;20463;-73
2022/09/13 07:46:06;;;;;;;1.30;1.20;;;;;;;-143.84;31.31;44972.91;5104068;28;20450;-75
2022/09/13 07:48:35;;;;;;;2.43;1.27;;;;;;;-143.84;30.15;44940.53;5107623;28;20439;-73
2022/09/13 07:51:06;;;;;;;10.10;1.53;;;;;;;-143.84;30.94;44931.00;5108127;28;20470;-73
2022/09/13 07:53:35;;;;;;;1.27;1.17;;;;;;;-143.84;30.38;44950.06;5107856;28;20971;-73
2022/09/13 07:56:03;;;;;;;4.73;1.20;;;;;;;-143.84;30.47;44944.34;5108066;28;20486;-73
2022/09/13 07:58:32;;;;;;;2.23;1.50;;;;;;;-143.84;31.55;44957.66;5108195;28;20450;-73
2022/09/13 08:01:05;;;;;;;4.60;1.77;;;;;;;-143.84;31.12;44942.44;5108687;28;20474;-73
2022/09/13 08:03:34;;;;;;;2.27;1.70;;;;;;;-143.84;31.62;44925.31;5107175;28;20454;-73
2022/09/13 08:06:03;;;;;;;2.80;1.60;;;;;;;-143.84;30.82;44976.72;5108572;28;20511;-73
2022/09/13 08:08:31;;;;;;;1.73;1.63;;;;;;;-143.84;31.06;44915.78;5108129;28;20450;-73
2022/09/13 08:10:58;;;;;;;2.33;1.60;;;;;;;-143.84;30.51;44934.81;5108367;28;21009;-73
2022/09/13 08:13:26;;;;;;;1.40;1.30;;;;;;;-143.84;31.22;44948.16;5105806;28;20431;-73
2022/09/13 08:15:53;;;;;;;6.40;1.60;;;;;;;-143.84;31.20;44963.38;5108311;28;21015;-73
2022/09/13 08:18:20;;;;;;;3.00;1.63;;;;;;;-143.84;30.58;44959.56;5108041;28;20447;-73
2022/09/13 08:20:48;;;;;;;2.50;1.80;;;;;;;-143.84;30.66;44950.06;5106853;28;20504;-72
2022/09/13 08:23:16;;;;;;;2.43;1.37;;;;;;;-143.84;31.08;44959.56;5107694;28;20446;-73
2022/09/13 08:25:43;;;;;;;1.93;1.50;;;;;;;-143.84;31.19;44984.31;5108258;28;20450;-73
2022/09/13 08:28:15;;;;;;;1.63;1.53;;;;;;;-143.84;30.87;44955.75;5107853;28;20443;-72
2022/09/13 08:30:42;;;;;;;1.73;1.63;;;;;;;-143.84;30.44;44963.38;5107967;28;20451;-73
2022/09/13 08:33:10;;;;;;;1.63;1.50;;;;;;;-143.84;31.07;44955.75;5108119;28;20482;-73
2022/09/13 08:35:38;;;;;;;6.07;1.67;;;;;;;-143.84;29.94;44938.63;5107892;28;20446;-72
2022/09/13 08:38:06;;;;;;;8.73;1.63;;;;;;;-143.84;31.25;44942.44;5107628;28;20466;-72
2022/09/13 08:40:40;;;;;;;2.90;1.60;;;;;;;-143.84;30.09;44957.66;5108406;28;20451;-73
2022/09/13 08:43:18;;;;;;;2.40;1.87;;;;;;;-143.84;29.80;44961.47;5107962;28;20483;-73
2022/09/13 08:45:50;;;;;;;4.30;1.53;;;;;;;-143.84;30.78;44934.81;5108217;28;20451;-73
2022/09/13 08:48:23;;;;;;;1.60;1.50;;;;;;;-143.84;31.08;44950.06;5108011;28;20439;-72
2022/09/13 08:50:59;;;;;;;1.93;1.60;;;;;;;-143.84;30.63;44925.31;5108027;28;20460;-72
2022/09/13 08:53:29;;;;;;;2.27;1.60;;;;;;;-143.84;30.51;44961.47;5108348;28;20455;-73
2022/09/13 08:56:03;;;;;;;2.33;1.80;;;;;;;-143.84;31.02;44940.53;5107887;28;20490;-73
2022/09/13 08:58:48;;;;;;;6.40;1.83;;;;;;;-143.84;30.41;44936.72;5111313;28;20451;-73
2022/09/13 09:01:25;;;;;;;1.47;1.37;;;;;;;-143.84;29.88;44936.72;5109952;28;20451;-73
2022/09/13 09:04:01;;;;;;;4.20;1.70;;;;;;;-143.84;30.06;44944.34;5111881;28;20462;-73
2022/09/13 09:06:28;;;;;;;6.37;1.57;;;;;;;-143.84;29.75;44911.97;5111130;28;20516;-73
2022/09/13 09:09:02;;;;;;;2.50;1.40;;;;;;;-143.84;30.88;44957.66;5111522;28;20450;-73
2022/09/13 09:11:38;;;;;;;1.50;1.20;;;;;;;-143.84;31.39;44951.97;5110524;28;20944;-73
2022/09/13 09:14:15;;;;;;;7.07;1.93;;;;;;;-143.84;30.27;44955.75;5111647;28;20446;-73
2022/09/13 09:16:48;;;;;;;1.60;1.50;;;;;;;-143.84;30.31;44929.09;5109757;28;20497;-73
2022/09/13 09:19:21;;;;;;;2.07;1.87;;;;;;;-143.84;30.80;44946.25;5110619;28;20443;-73
2022/09/13 09:21:50;;;;;;;2.07;1.87;;;;;;;-143.84;29.57;44946.25;5110988;28;20549;-73
2022/09/13 09:24:22;;;;;;;3.20;1.63;;;;;;;-143.84;30.84;44955.75;5112059;28;20530;-71
2022/09/13 09:26:53;;;;;;;4.57;1.80;;;;;;;-143.84;31.25;44971.00;5111992;28;20964;-71
2022/09/13 09:29:24;;;;;;;7.20;1.83;;;;;;;-143.84;30.70;44936.72;5112442;28;20439;-71
2022/09/13 09:32:07;;;;;;;1.60;1.50;;;;;;;-143.84;31.59;44974.81;5112181;28;20439;-71
2022/09/13 09:34:45;;;;;;;5.40;1.67;;;;;;;-143.84;31.41;44980.53;5111106;28;20496;-71
2022/09/13 09:37:20;;;;;;;1.97;1.87;;;;;;;-143.84;31.83;44969.09;5111820;28;20482;-71
2022/09/13 09:39:48;;;;;;;1.50;1.17;;;;;;;-143.84;32.33;44982.41;5110636;28;20490;-71
2022/09/13 09:42:20;;;;;;;5.03;1.47;;;;;;;-143.84;33.72;44978.63;5112134;28;20451;-71
2022/09/13 09:44:51;;;;;;;3.00;1.67;;;;;;;-143.84;34.86;44991.94;5109432;28;20473;-71
2022/09/13 09:47:22;;;;;;;2.70;1.73;;;;;;;-143.84;35.25;44980.53;5110449;28;20431;-71
2022/09/13 09:50:11;;;;;;;3.47;1.87;;;;;;;-143.84;35.59;44993.84;5110741;28;20451;-71
2022/09/13 09:52:44;;;;;;;3.07;1.57;;;;;;;-143.84;35.92;44980.53;5110647;28;20533;-71
2022/09/13 09:55:20;;;;;;;2.00;1.90;;;;;;;-143.84;36.45;44984.31;5111933;28;21242;-71
2022/09/13 09:57:54;;;;;;;1.70;1.60;;;;;;;-143.84;37.28;44991.94;5110466;28;20498;-71
2022/09/13 10:00:23;;;;;;;3.43;1.93;;;;;;;-143.84;37.47;44980.53;5111106;28;20514;-71
2022/09/13 10:02:56;;;;;;;6.90;1.90;;;;;;;-143.84;38.17;45026.22;5111542;28;20542;-71
2022/09/13 10:05:25;;;;;;;2.50;2.23;;;;;;;-143.84;37.51;45016.69;5110825;28;20534;-71
2022/09/13 10:07:59;;;;;;;8.40;1.90;;;;;;;-143.84;39.29;44982.41;5111162;28;20449;-73
2022/09/13 10:10:35;;;;;;;8.30;1.83;;;;;;;-143.84;37.98;45016.69;5109623;28;21081;-73
2022/09/13 10:13:06;;;;;;;8.70;2.13;;;;;;;-143.84;38.52;44993.84;5107118;28;20466;-73
2022/09/13 10:15:34;;;;;;;2.27;1.60;;;;;;;-143.84;38.04;45003.38;5107037;28;20455;-73
2022/09/13 10:18:14;;;;;;;1.80;1.70;;;;;;;-143.84;38.95;44988.13;5109831;28;20482;-73
2022/09/13 10:20:42;;;;;;;9.60;2.13;;;;;;;-143.84;39.40;45022.41;5110727;28;20522;-73
2022/09/13 10:23:12;;;;;;;5.80;1.87;;;;;;;-143.84;39.40;44984.31;5110363;28;20566;-73
2022/09/13 10:25:40;;;;;;;1.90;1.80;;;;;;;-143.84;40.08;45031.94;5110676;28;20447;-73
2022/09/13 10:28:16;;;;;;;1.87;1.67;;;;;;;-143.84;40.32;45022.41;5110421;28;20952;-73
2022/09/13 10:30:47;;;;;;;2.63;2.00;;;;;;;-143.84;40.36;45018.59;5110238;28;20515;-73
2022/09/13 10:33:26;;;;;;;2.90;2.10;;;;;;;-143.84;40.77;45028.13;5110256;28;20446;-73
2022/09/13 10:35:57;;;;;;;2.40;2.20;;;;;;;-143.84;41.38;45003.38;5110538;28;21018;-73
2022/09/13 10:38:30;;;;;;;2.13;1.90;;;;;;;-143.84;41.53;45031.94;5109579;28;20962;-73
2022/09/13 10:40:57;;;;;;;5.23;1.90;;;;;;;-143.84;41.61;44995.75;5110240;28;20442;-73
2022/09/13 10:43:29;;;;;;;3.20;1.80;;;;;;;-143.84;41.74;45009.09;5110181;28;20450;-73
2022/09/13 10:45:57;;;;;;;4.03;1.80;;;;;;;-143.84;41.91;45047.16;5110649;28;21214;-73
2022/09/13 10:48:24;;;;;;;2.53;2.10;;;;;;;-143.84;42.56;45028.13;5110398;28;20459;-73
2022/09/13 10:51:03;;;;;;;2.43;2.20;;;;;;;-143.84;42.49;45026.22;5110138;28;20451;-73
2022/09/13 10:53:34;;;;;;;5.43;1.87;;;;;;;-143.84;43.28;45014.78;5108251;28;20526;-73
2022/09/13 10:56:02;;;;;;;3.03;2.70;;;;;;;-143.84;42.88;45035.75;5109606;28;20439;-73
2022/09/13 10:58:30;;;;;;;1.87;1.77;;;;;;;-143.84;42.73;45014.78;5109477;28;20489;-73
2022/09/13 11:01:40;;;;;;;2.03;1.93;;;;;;;-143.84;42.88;45007.19;5109806;28;20455;-73
2022/09/13 11:04:35;;;;;;;2.53;2.33;;;;;;;-143.84;43.04;45003.38;5108818;28;20455;-73
2022/09/13 11:07:34;;;;;;;3.20;1.63;;;;;;;-143.84;43.08;45024.31;5108792;28;20447;-73
2022/09/13 11:10:04;;;;;;;2.40;2.00;;;;;;;-143.84;42.70;45030.03;5107525;28;20467;-73
2022/09/13 11:12:40;;;;;;;3.47;2.30;;;;;;;-143.84;41.52;45005.28;5109876;28;20451;-73
2022/09/13 11:15:21;;;;;;;2.07;1.97;;;;;;;-143.84;41.91;44999.56;5109790;28;20449;-73
2022/09/13 11:18:06;;;;;;;1.90;1.80;;;;;;;-143.84;41.20;45026.22;5109779;28;20636;-73
2022/09/13 11:20:43;;;;;;;2.60;2.40;;;;;;;-143.84;42.01;45030.03;5107028;28;20994;-73
2022/09/13 11:23:55;;;;;;;3.10;2.03;;;;;;;-143.84;42.48;45024.31;5107607;28;20450;-73
2022/09/13 11:26:38;;;;;;;2.00;1.60;;;;;;;-143.84;41.47;45041.44;5062372;28;20960;-73
2022/09/13 11:29:15;;;;;;;3.83;2.90;;;;;;;-143.84;41.95;45014.78;5106753;28;20940;-73
2022/09/13 11:31:59;;;;;;;4.60;2.10;;;;;;;-143.84;41.94;45031.94;5109182;28;21141;-73
2022/09/13 11:34:48;;;;;;;2.17;1.97;;;;;;;-143.84;43.42;45001.47;5109279;28;20458;-73
2022/09/13 11:37:33;;;;;;;6.30;2.00;;;;;;;-143.84;43.28;45033.84;5107028;28;20555;-73
2022/09/13 11:40:15;;;;;;;2.03;1.83;;;;;;;-143.84;42.17;45028.13;5109028;28;21007;-73